Time;durP1;ratioP1;P1;durP2;ratioP2;P2;SDS_P1;SDS_P2;PMS_P1;PMS_P2;Temp;Humidity;BMP_temperature;BMP_pressure;BME280_temperature;BME280_humidity;BME280_pressure;Samples;Min_cycle;Max_cycle;Signal;HPM_P1;HPM_P2
2023/05/31 00:01:12;;;;;;;2.75;1.00;;;;;;;;;;5049139;28;20461;-62
2023/05/31 00:03:43;;;;;;;0.85;0.68;;;;;;;;;;5042844;28;20054;-64
2023/05/31 00:06:11;;;;;;;7.25;1.35;;;;;;;;;;5048391;28;20048;-63
2023/05/31 00:08:40;;;;;;;0.75;0.75;;;;;;;;;;5047628;28;20297;-64
2023/05/31 00:11:09;;;;;;;1.58;0.70;;;;;;;;;;5041955;28;20108;-62
2023/05/31 00:13:39;;;;;;;1.50;0.98;;;;;;;;;;5046537;28;20048;-63
2023/05/31 00:16:08;;;;;;;2.25;0.77;;;;;;;;;;5047903;28;20041;-64
2023/05/31 00:18:57;;;;;;;0.98;0.50;;;;;;;;;;5046788;28;20037;-63
2023/05/31 00:21:26;;;;;;;1.60;0.98;;;;;;;;;;5045858;28;20123;-63
2023/05/31 00:23:54;;;;;;;2.92;0.73;;;;;;;;;;5041660;28;20468;-63
2023/05/31 00:26:23;;;;;;;2.40;1.05;;;;;;;;;;5048394;28;20079;-66
2023/05/31 00:28:53;;;;;;;1.83;0.55;;;;;;;;;;5044840;28;20040;-63
2023/05/31 00:31:23;;;;;;;1.10;0.50;;;;;;;;;;5047872;28;20522;-63
2023/05/31 00:33:51;;;;;;;1.00;0.68;;;;;;;;;;5039648;28;20490;-64
2023/05/31 00:36:20;;;;;;;1.15;0.70;;;;;;;;;;5045136;28;20195;-65
2023/05/31 00:38:48;;;;;;;3.28;1.33;;;;;;;;;;5046738;28;20494;-63
2023/05/31 00:41:16;;;;;;;0.93;0.82;;;;;;;;;;5049294;28;20053;-62
2023/05/31 00:43:45;;;;;;;0.65;0.60;;;;;;;;;;5043649;28;20413;-63
2023/05/31 00:46:19;;;;;;;1.45;0.77;;;;;;;;;;5049238;28;20044;-62
2023/05/31 00:48:48;;;;;;;2.30;0.90;;;;;;;;;;5046104;28;20048;-62
2023/05/31 00:51:16;;;;;;;1.25;0.60;;;;;;;;;;5043072;28;20052;-62
2023/05/31 00:53:45;;;;;;;0.80;0.60;;;;;;;;;;5051687;28;20060;-63
2023/05/31 00:56:14;;;;;;;2.00;0.70;;;;;;;;;;5043458;28;20098;-62
2023/05/31 00:58:43;;;;;;;1.67;0.68;;;;;;;;;;5047494;28;20076;-62
2023/05/31 01:01:11;;;;;;;2.15;1.27;;;;;;;;;;5048760;28;20049;-63
2023/05/31 01:03:41;;;;;;;0.52;0.52;;;;;;;;;;5039871;28;20049;-62
2023/05/31 01:06:10;;;;;;;2.38;0.90;;;;;;;;;;5045625;28;20504;-63
2023/05/31 01:08:39;;;;;;;4.57;1.10;;;;;;;;;;5043662;28;20390;-64
2023/05/31 01:11:28;;;;;;;1.65;0.63;;;;;;;;;;5046208;28;20103;-63
2023/05/31 01:14:03;;;;;;;1.02;0.60;;;;;;;;;;5045311;28;20056;-63
2023/05/31 01:16:35;;;;;;;0.82;0.80;;;;;;;;;;5043989;28;20071;-63
2023/05/31 01:19:07;;;;;;;1.83;0.50;;;;;;;;;;5047082;28;20060;-63
2023/05/31 01:21:44;;;;;;;2.83;0.63;;;;;;;;;;5046553;28;20052;-62
2023/05/31 01:24:22;;;;;;;2.88;0.68;;;;;;;;;;5041466;28;20049;-63
2023/05/31 01:26:53;;;;;;;1.92;0.77;;;;;;;;;;5045869;28;20048;-63
2023/05/31 01:29:23;;;;;;;1.52;1.00;;;;;;;;;;5044786;28;20045;-63
2023/05/31 01:31:52;;;;;;;1.35;0.80;;;;;;;;;;5045531;28;20482;-65
2023/05/31 01:34:20;;;;;;;1.17;0.90;;;;;;;;;;5038109;28;20049;-65
2023/05/31 01:36:49;;;;;;;0.93;0.60;;;;;;;;;;5046448;28;20563;-62
2023/05/31 01:39:17;;;;;;;2.30;1.17;;;;;;;;;;5035589;28;20322;-62
2023/05/31 01:41:47;;;;;;;1.27;0.63;;;;;;;;;;5048437;28;20041;-64
2023/05/31 01:44:18;;;;;;;2.72;0.70;;;;;;;;;;5047990;28;20087;-63
2023/05/31 01:46:47;;;;;;;1.70;0.70;;;;;;;;;;5048265;28;20041;-62
2023/05/31 01:49:15;;;;;;;0.40;0.38;;;;;;;;;;5044784;28;20175;-63
2023/05/31 01:51:44;;;;;;;2.22;0.80;;;;;;;;;;5046060;28;20544;-63
2023/05/31 01:54:13;;;;;;;1.85;1.23;;;;;;;;;;5043330;28;20448;-64
2023/05/31 01:56:41;;;;;;;1.10;0.50;;;;;;;;;;5026141;28;20050;-62
2023/05/31 01:59:10;;;;;;;1.30;0.82;;;;;;;;;;5027224;28;20128;-62
2023/05/31 02:01:40;;;;;;;1.40;0.60;;;;;;;;;;5025967;28;20827;-65
2023/05/31 02:04:09;;;;;;;0.82;0.60;;;;;;;;;;5018853;28;20072;-62
2023/05/31 02:06:38;;;;;;;3.95;1.30;;;;;;;;;;5021883;28;20049;-63
2023/05/31 02:09:07;;;;;;;1.38;0.57;;;;;;;;;;5022900;28;20598;-62
2023/05/31 02:11:36;;;;;;;1.42;0.75;;;;;;;;;;5028234;28;20120;-62
2023/05/31 02:14:04;;;;;;;2.72;0.50;;;;;;;;;;5020940;28;20096;-62
2023/05/31 02:16:32;;;;;;;1.15;0.70;;;;;;;;;;5024740;28;20507;-63
2023/05/31 02:19:02;;;;;;;0.75;0.40;;;;;;;;;;5021036;28;20088;-63
2023/05/31 02:21:35;;;;;;;2.88;1.00;;;;;;;;;;5026037;28;20045;-62
2023/05/31 02:24:03;;;;;;;2.50;0.88;;;;;;;;;;5019725;28;20150;-64
2023/05/31 02:26:32;;;;;;;0.32;0.30;;;;;;;;;;5033571;28;20137;-64
2023/05/31 02:29:00;;;;;;;1.17;0.60;;;;;;;;;;5043738;28;20045;-63
2023/05/31 02:31:28;;;;;;;0.82;0.45;;;;;;;;;;5044622;28;20095;-62
2023/05/31 02:33:57;;;;;;;1.60;0.63;;;;;;;;;;5040180;28;20055;-61
2023/05/31 02:36:28;;;;;;;1.35;0.82;;;;;;;;;;5045292;28;20041;-63
2023/05/31 02:38:57;;;;;;;0.60;0.60;;;;;;;;;;5041085;28;20049;-62
2023/05/31 02:41:25;;;;;;;0.60;0.60;;;;;;;;;;5044301;28;20041;-62
2023/05/31 02:43:54;;;;;;;5.65;0.82;;;;;;;;;;5045673;28;20044;-62
2023/05/31 02:46:22;;;;;;;0.65;0.40;;;;;;;;;;5040752;28;20053;-64
2023/05/31 02:48:50;;;;;;;2.92;0.88;;;;;;;;;;5045275;28;20137;-62
2023/05/31 02:51:19;;;;;;;1.90;0.85;;;;;;;;;;5047285;28;20084;-63
2023/05/31 02:53:48;;;;;;;0.63;0.32;;;;;;;;;;5041294;28;20077;-63
2023/05/31 02:56:18;;;;;;;0.68;0.68;;;;;;;;;;5042439;28;20072;-63
2023/05/31 02:58:46;;;;;;;0.90;0.60;;;;;;;;;;5040050;28;20110;-62
2023/05/31 03:01:15;;;;;;;1.08;0.70;;;;;;;;;;5041971;28;20045;-63
2023/05/31 03:03:43;;;;;;;2.17;0.80;;;;;;;;;;5042640;28;20115;-62
2023/05/31 03:06:12;;;;;;;2.05;0.70;;;;;;;;;;5039785;28;20144;-63
2023/05/31 03:08:40;;;;;;;3.33;0.70;;;;;;;;;;5042032;28;20114;-61
2023/05/31 03:11:10;;;;;;;0.50;0.50;;;;;;;;;;5040777;28;20522;-61
2023/05/31 03:13:39;;;;;;;1.55;1.08;;;;;;;;;;5040564;28;20048;-62
2023/05/31 03:16:07;;;;;;;2.80;0.77;;;;;;;;;;5043185;28;20079;-63
2023/05/31 03:18:36;;;;;;;1.95;0.65;;;;;;;;;;5038223;28;20412;-62
2023/05/31 03:21:06;;;;;;;1.08;0.60;;;;;;;;;;5043552;28;20041;-64
2023/05/31 03:23:35;;;;;;;0.98;0.57;;;;;;;;;;5042266;28;20049;-61
2023/05/31 03:26:05;;;;;;;1.00;0.80;;;;;;;;;;5042332;28;20045;-62
2023/05/31 03:28:34;;;;;;;0.70;0.70;;;;;;;;;;5040169;28;20044;-64
2023/05/31 03:31:03;;;;;;;0.73;0.45;;;;;;;;;;5046000;28;20052;-62
2023/05/31 03:33:32;;;;;;;5.57;0.80;;;;;;;;;;5049584;28;20532;-61
2023/05/31 03:36:00;;;;;;;0.85;0.60;;;;;;;;;;5047026;28;20083;-63
2023/05/31 03:38:29;;;;;;;0.73;0.50;;;;;;;;;;5050194;28;20094;-62
2023/05/31 03:40:58;;;;;;;3.30;0.80;;;;;;;;;;5038578;28;21165;-62
2023/05/31 03:43:26;;;;;;;1.92;0.43;;;;;;;;;;5043859;28;20546;-62
2023/05/31 03:46:00;;;;;;;5.88;0.70;;;;;;;;;;5049604;28;20100;-66
2023/05/31 03:48:29;;;;;;;0.80;0.80;;;;;;;;;;5044734;28;20049;-61
2023/05/31 03:50:57;;;;;;;1.92;0.77;;;;;;;;;;5048626;28;20144;-62
2023/05/31 03:53:26;;;;;;;1.17;0.70;;;;;;;;;;5041163;28;20402;-62
2023/05/31 03:55:55;;;;;;;1.30;0.65;;;;;;;;;;5044734;28;20049;-65
2023/05/31 03:58:23;;;;;;;2.42;0.52;;;;;;;;;;5047154;28;20087;-61
2023/05/31 04:00:52;;;;;;;1.27;0.95;;;;;;;;;;5048826;28;20076;-66
2023/05/31 04:03:21;;;;;;;1.00;0.60;;;;;;;;;;5041049;28;20530;-63
2023/05/31 04:05:50;;;;;;;3.78;0.55;;;;;;;;;;5048005;28;20060;-63
2023/05/31 04:08:18;;;;;;;1.10;0.50;;;;;;;;;;5046031;28;20036;-61
2023/05/31 04:10:47;;;;;;;0.65;0.65;;;;;;;;;;5047466;28;20048;-60
2023/05/31 04:13:15;;;;;;;0.63;0.50;;;;;;;;;;5046149;28;20495;-61
2023/05/31 04:15:44;;;;;;;0.88;0.38;;;;;;;;;;5048763;28;20053;-62
2023/05/31 04:18:12;;;;;;;1.35;0.75;;;;;;;;;;5045924;28;20052;-61
2023/05/31 04:20:42;;;;;;;0.65;0.50;;;;;;;;;;5039182;28;20555;-61
2023/05/31 04:23:10;;;;;;;1.67;1.17;;;;;;;;;;5047417;28;20376;-63
2023/05/31 04:25:38;;;;;;;1.48;0.40;;;;;;;;;;5043524;28;20049;-63
2023/05/31 04:28:07;;;;;;;0.43;0.43;;;;;;;;;;5045496;28;20049;-60
2023/05/31 04:30:36;;;;;;;1.77;0.47;;;;;;;;;;5047256;28;20048;-62
2023/05/31 04:33:04;;;;;;;1.15;0.50;;;;;;;;;;5045086;28;20042;-62
2023/05/31 04:35:33;;;;;;;1.88;0.70;;;;;;;;;;5048521;28;20136;-64
2023/05/31 04:38:03;;;;;;;2.78;0.75;;;;;;;;;;5049713;28;20076;-62
2023/05/31 04:40:32;;;;;;;1.42;0.82;;;;;;;;;;5047157;28;20082;-61
2023/05/31 04:43:02;;;;;;;1.63;0.63;;;;;;;;;;5048984;28;20131;-60
2023/05/31 04:45:30;;;;;;;4.57;0.73;;;;;;;;;;5049859;28;20053;-61
2023/05/31 04:47:59;;;;;;;1.30;0.88;;;;;;;;;;5050225;28;20095;-60
2023/05/31 04:50:28;;;;;;;1.73;0.55;;;;;;;;;;5043183;28;20124;-60
2023/05/31 04:52:58;;;;;;;0.65;0.65;;;;;;;;;;5042677;28;20544;-61
2023/05/31 04:55:28;;;;;;;0.93;0.60;;;;;;;;;;5052145;28;20497;-61
2023/05/31 04:57:56;;;;;;;0.93;0.60;;;;;;;;;;5052180;28;20417;-62
2023/05/31 05:00:25;;;;;;;1.92;0.85;;;;;;;;;;5051892;28;20142;-63
2023/05/31 05:02:53;;;;;;;0.85;0.55;;;;;;;;;;5048919;28;20049;-62
2023/05/31 05:05:23;;;;;;;2.35;1.02;;;;;;;;;;5051280;28;20132;-61
2023/05/31 05:07:51;;;;;;;1.33;0.57;;;;;;;;;;5051306;28;20065;-61
2023/05/31 05:10:20;;;;;;;0.70;0.65;;;;;;;;;;5050999;28;20102;-62
2023/05/31 05:12:50;;;;;;;1.15;0.43;;;;;;;;;;5047241;28;20053;-61
2023/05/31 05:15:18;;;;;;;0.70;0.38;;;;;;;;;;5042164;28;20041;-60
2023/05/31 05:17:46;;;;;;;2.17;0.98;;;;;;;;;;5052139;28;20040;-60
2023/05/31 05:20:15;;;;;;;1.65;1.05;;;;;;;;;;5051296;28;20052;-62
2023/05/31 05:22:43;;;;;;;1.10;0.63;;;;;;;;;;5047451;28;20049;-62
2023/05/31 05:25:12;;;;;;;2.05;0.77;;;;;;;;;;5051242;28;20155;-61
2023/05/31 05:27:40;;;;;;;0.52;0.50;;;;;;;;;;5051603;28;20448;-60
2023/05/31 05:30:11;;;;;;;2.42;1.23;;;;;;;;;;5052030;28;20055;-60
2023/05/31 05:32:39;;;;;;;5.05;0.63;;;;;;;;;;5038010;28;20464;-61
2023/05/31 05:35:08;;;;;;;3.85;0.85;;;;;;;;;;5049273;28;20120;-61
2023/05/31 05:37:37;;;;;;;1.13;0.90;;;;;;;;;;5051109;28;20060;-60
2023/05/31 05:40:07;;;;;;;4.22;0.70;;;;;;;;;;5050362;28;20114;-61
2023/05/31 05:42:37;;;;;;;3.25;1.35;;;;;;;;;;5051680;28;20048;-62
2023/05/31 05:45:06;;;;;;;4.03;0.57;;;;;;;;;;5049613;28;20044;-62
2023/05/31 05:47:36;;;;;;;2.38;1.15;;;;;;;;;;5050985;28;20049;-61
2023/05/31 05:50:05;;;;;;;1.08;0.50;;;;;;;;;;5037337;28;20045;-61
2023/05/31 05:52:36;;;;;;;1.95;1.08;;;;;;;;;;5051018;28;20122;-62
2023/05/31 05:55:04;;;;;;;2.90;0.95;;;;;;;;;;5051020;28;20083;-62
2023/05/31 05:57:33;;;;;;;2.15;0.77;;;;;;;;;;5050016;28;20053;-62
2023/05/31 06:00:07;;;;;;;1.30;0.63;;;;;;;;;;5051204;28;20052;-62
2023/05/31 06:02:36;;;;;;;3.38;0.70;;;;;;;;;;5050148;28;20500;-62
2023/05/31 06:05:05;;;;;;;3.05;0.95;;;;;;;;;;5040293;28;20048;-61
2023/05/31 06:07:34;;;;;;;1.88;0.75;;;;;;;;;;5050043;28;20049;-63
2023/05/31 06:10:03;;;;;;;0.65;0.47;;;;;;;;;;5045608;28;20064;-61
2023/05/31 06:12:31;;;;;;;0.88;0.35;;;;;;;;;;5050946;28;20096;-62
2023/05/31 06:14:59;;;;;;;1.27;0.93;;;;;;;;;;5041525;28;20041;-62
2023/05/31 06:17:28;;;;;;;5.75;1.58;;;;;;;;;;5051089;28;20098;-61
2023/05/31 06:19:58;;;;;;;3.60;1.00;;;;;;;;;;5049688;28;20052;-60
2023/05/31 06:22:26;;;;;;;2.47;0.60;;;;;;;;;;5047726;28;20041;-63
2023/05/31 06:24:57;;;;;;;1.25;0.65;;;;;;;;;;5049778;28;20060;-62
2023/05/31 06:27:25;;;;;;;1.23;1.13;;;;;;;;;;5037750;28;20053;-61
2023/05/31 06:29:57;;;;;;;1.92;1.83;;;;;;;;;;5050615;28;20597;-63
2023/05/31 06:32:26;;;;;;;1.25;0.85;;;;;;;;;;5048140;28;20048;-63
2023/05/31 06:34:55;;;;;;;1.25;0.65;;;;;;;;;;5047205;28;20053;-62
2023/05/31 06:37:24;;;;;;;2.65;0.95;;;;;;;;;;5050510;28;20049;-63
2023/05/31 06:39:53;;;;;;;1.77;0.93;;;;;;;;;;5050442;28;20053;-61
2023/05/31 06:42:22;;;;;;;3.58;0.98;;;;;;;;;;5049816;28;20044;-62
2023/05/31 06:44:51;;;;;;;1.70;1.05;;;;;;;;;;5049707;28;20053;-62
2023/05/31 06:47:24;;;;;;;1.87;0.83;;;;;;;;;;5051001;28;20437;-63
2023/05/31 06:49:53;;;;;;;6.32;0.65;;;;;;;;;;5050262;28;20136;-62
2023/05/31 06:52:21;;;;;;;3.20;0.90;;;;;;;;;;5050587;28;20160;-62
2023/05/31 06:54:52;;;;;;;3.78;0.68;;;;;;;;;;5037057;28;20602;-61
2023/05/31 06:57:20;;;;;;;1.27;0.63;;;;;;;;;;5051143;28;20049;-62
2023/05/31 06:59:49;;;;;;;2.63;0.60;;;;;;;;;;5049190;28;20100;-63
2023/05/31 07:02:17;;;;;;;3.40;1.10;;;;;;;;;;5049517;28;20452;-62
2023/05/31 07:04:46;;;;;;;4.50;1.00;;;;;;;;;;5046892;28;20057;-62
2023/05/31 07:07:14;;;;;;;6.68;1.10;;;;;;;;;;5050070;28;20424;-62
2023/05/31 07:09:43;;;;;;;2.60;0.80;;;;;;;;;;5049504;28;20486;-61
2023/05/31 07:12:12;;;;;;;3.78;0.90;;;;;;;;;;5049316;28;20102;-62
2023/05/31 07:14:41;;;;;;;1.55;0.82;;;;;;;;;;5046273;28;20130;-63
2023/05/31 07:17:09;;;;;;;1.10;0.75;;;;;;;;;;5049799;28;20088;-64
2023/05/31 07:19:45;;;;;;;1.05;0.75;;;;;;;;;;5050183;28;20046;-62
2023/05/31 07:22:14;;;;;;;2.10;1.65;;;;;;;;;;5047317;28;20448;-62
2023/05/31 07:24:42;;;;;;;1.60;0.95;;;;;;;;;;5043794;28;20452;-61
2023/05/31 07:27:11;;;;;;;169.23;143.18;;;;;;;;;;5049589;28;20110;-62
2023/05/31 07:29:41;;;;;;;3.70;0.90;;;;;;;;;;5050163;28;20489;-62
2023/05/31 07:32:09;;;;;;;3.60;0.82;;;;;;;;;;5049906;28;20045;-64
2023/05/31 07:34:37;;;;;;;2.40;0.80;;;;;;;;;;5048757;28;20041;-60
2023/05/31 07:37:26;;;;;;;1.45;0.63;;;;;;;;;;5033508;28;20053;-62
2023/05/31 07:39:54;;;;;;;2.00;1.00;;;;;;;;;;5049623;28;20383;-63
2023/05/31 07:42:22;;;;;;;1.75;0.88;;;;;;;;;;5048595;28;20364;-60
2023/05/31 07:44:53;;;;;;;2.00;0.93;;;;;;;;;;5048999;28;20088;-63
2023/05/31 07:47:22;;;;;;;2.88;0.90;;;;;;;;;;5049885;28;20049;-60
2023/05/31 07:49:51;;;;;;;0.82;0.52;;;;;;;;;;5049365;28;20041;-61
2023/05/31 07:52:21;;;;;;;0.98;0.85;;;;;;;;;;5049281;28;20052;-63
2023/05/31 07:54:50;;;;;;;1.15;0.98;;;;;;;;;;5044658;28;20414;-62
2023/05/31 07:57:18;;;;;;;1.55;0.80;;;;;;;;;;5050270;28;20084;-62
2023/05/31 07:59:47;;;;;;;1.42;0.88;;;;;;;;;;5049587;28;20045;-63
2023/05/31 08:02:16;;;;;;;1.50;0.82;;;;;;;;;;5049304;28;20431;-63
2023/05/31 08:04:45;;;;;;;2.83;1.50;;;;;;;;;;5048013;28;20049;-62
2023/05/31 08:07:13;;;;;;;4.85;1.17;;;;;;;;;;5049223;28;20045;-63
2023/05/31 08:09:43;;;;;;;3.78;1.17;;;;;;;;;;5036548;28;20452;-61
2023/05/31 08:12:11;;;;;;;1.80;1.10;;;;;;;;;;5049729;28;20041;-62
2023/05/31 08:14:40;;;;;;;1.65;0.63;;;;;;;;;;5043206;28;20445;-62
2023/05/31 08:17:08;;;;;;;5.22;1.13;;;;;;;;;;5051709;28;20074;-62
2023/05/31 08:19:38;;;;;;;2.75;0.73;;;;;;;;;;5053341;28;20124;-61
2023/05/31 08:22:07;;;;;;;3.22;0.85;;;;;;;;;;5053048;28;20045;-61
2023/05/31 08:24:36;;;;;;;2.60;0.80;;;;;;;;;;5049876;28;20057;-64
2023/05/31 08:27:05;;;;;;;2.15;0.82;;;;;;;;;;5052424;28;20088;-64
2023/05/31 08:29:34;;;;;;;1.88;0.80;;;;;;;;;;5051554;28;20111;-62
2023/05/31 08:32:03;;;;;;;1.10;0.70;;;;;;;;;;5049368;28;20452;-63
2023/05/31 08:34:31;;;;;;;4.03;1.70;;;;;;;;;;5052590;28;20560;-62
2023/05/31 08:37:01;;;;;;;1.25;0.70;;;;;;;;;;5052134;28;20072;-63
2023/05/31 08:39:30;;;;;;;0.88;0.73;;;;;;;;;;5051743;28;20099;-64
2023/05/31 08:42:01;;;;;;;4.15;0.77;;;;;;;;;;5051914;28;20044;-63
2023/05/31 08:44:30;;;;;;;1.73;1.00;;;;;;;;;;5046554;28;20056;-62
2023/05/31 08:46:59;;;;;;;2.75;0.95;;;;;;;;;;5052153;28;20079;-62
2023/05/31 08:49:28;;;;;;;5.28;0.85;;;;;;;;;;5052537;28;20041;-63
2023/05/31 08:51:57;;;;;;;2.13;0.60;;;;;;;;;;5051971;28;20075;-63
2023/05/31 08:54:28;;;;;;;2.15;1.33;;;;;;;;;;5041132;28;20072;-63
2023/05/31 08:56:56;;;;;;;4.97;1.70;;;;;;;;;;5050233;28;20561;-65
2023/05/31 08:59:25;;;;;;;1.77;1.10;;;;;;;;;;5050982;28;20127;-62
2023/05/31 09:01:53;;;;;;;2.97;1.17;;;;;;;;;;5050338;28;20080;-63
2023/05/31 09:04:23;;;;;;;4.85;0.80;;;;;;;;;;5050290;28;20368;-62
2023/05/31 09:06:52;;;;;;;1.17;0.57;;;;;;;;;;5050283;28;20045;-64
2023/05/31 09:09:20;;;;;;;5.03;0.85;;;;;;;;;;5050303;28;20620;-63
2023/05/31 09:11:50;;;;;;;2.40;0.75;;;;;;;;;;5051025;28;20106;-62
2023/05/31 09:14:18;;;;;;;1.20;0.80;;;;;;;;;;5046412;28;20072;-63
2023/05/31 09:16:47;;;;;;;3.03;1.00;;;;;;;;;;5051288;28;20084;-63
2023/05/31 09:19:15;;;;;;;3.88;0.85;;;;;;;;;;5038785;28;20076;-62
2023/05/31 09:21:46;;;;;;;0.95;0.70;;;;;;;;;;5048745;28;20118;-64
2023/05/31 09:24:16;;;;;;;0.80;0.55;;;;;;;;;;5048815;28;20110;-64
2023/05/31 09:26:48;;;;;;;1.63;1.00;;;;;;;;;;5051361;28;20096;-64
2023/05/31 09:29:19;;;;;;;1.75;1.05;;;;;;;;;;5051540;28;20132;-63
2023/05/31 09:31:47;;;;;;;2.67;0.77;;;;;;;;;;5051914;28;20052;-63
2023/05/31 09:34:26;;;;;;;9.73;1.00;;;;;;;;;;5051217;28;20067;-63
2023/05/31 09:36:58;;;;;;;4.00;0.98;;;;;;;;;;5051178;28;20049;-62
2023/05/31 09:39:26;;;;;;;4.75;1.25;;;;;;;;;;5051896;28;20494;-61
2023/05/31 09:41:56;;;;;;;0.93;0.57;;;;;;;;;;5052498;28;20551;-65
2023/05/31 09:44:28;;;;;;;4.13;0.90;;;;;;;;;;5040263;28;20054;-63
2023/05/31 09:46:57;;;;;;;2.65;1.00;;;;;;;;;;5039040;28;20053;-64
2023/05/31 09:49:28;;;;;;;1.08;0.70;;;;;;;;;;5051988;28;20084;-65
2023/05/31 09:51:56;;;;;;;2.58;0.77;;;;;;;;;;5051680;28;20091;-65
2023/05/31 09:54:25;;;;;;;7.88;1.08;;;;;;;;;;5040338;28;20483;-63
2023/05/31 09:56:55;;;;;;;1.67;0.75;;;;;;;;;;5050696;28;20406;-62
2023/05/31 09:59:24;;;;;;;1.10;0.68;;;;;;;;;;5051373;28;20056;-62
2023/05/31 10:01:54;;;;;;;5.35;0.90;;;;;;;;;;5051721;28;20049;-65
2023/05/31 10:04:23;;;;;;;2.17;0.82;;;;;;;;;;5050615;28;20056;-63
2023/05/31 10:06:51;;;;;;;1.90;0.70;;;;;;;;;;5050360;28;20071;-65
2023/05/31 10:09:20;;;;;;;7.82;0.90;;;;;;;;;;5051115;28;20532;-63
2023/05/31 10:11:52;;;;;;;2.35;1.00;;;;;;;;;;5051384;28;20045;-63
2023/05/31 10:14:22;;;;;;;1.98;0.90;;;;;;;;;;5050563;28;20052;-63
2023/05/31 10:16:51;;;;;;;1.05;0.95;;;;;;;;;;5050279;28;20057;-63
2023/05/31 10:19:24;;;;;;;1.45;0.90;;;;;;;;;;5050960;28;20081;-67
2023/05/31 10:21:53;;;;;;;2.65;0.80;;;;;;;;;;5050947;28;20120;-65
2023/05/31 10:24:25;;;;;;;1.40;0.95;;;;;;;;;;5047522;28;20049;-66
2023/05/31 10:26:58;;;;;;;0.85;0.50;;;;;;;;;;5050134;28;20053;-66
2023/05/31 10:29:29;;;;;;;2.33;1.02;;;;;;;;;;5049795;28;20057;-68
2023/05/31 10:32:02;;;;;;;1.52;0.77;;;;;;;;;;5050192;28;20086;-67
2023/05/31 10:34:32;;;;;;;3.00;1.50;;;;;;;;;;5050305;28;20049;-65
2023/05/31 10:37:01;;;;;;;3.85;1.20;;;;;;;;;;5049532;28;20049;-64
2023/05/31 10:39:33;;;;;;;2.17;0.80;;;;;;;;;;5050353;28;20114;-64
2023/05/31 10:42:07;;;;;;;1.85;0.82;;;;;;;;;;5037820;28;20052;-65
2023/05/31 10:44:39;;;;;;;1.90;0.65;;;;;;;;;;5050653;28;20057;-64
2023/05/31 10:47:09;;;;;;;7.40;1.30;;;;;;;;;;5045052;28;20080;-64
2023/05/31 10:49:41;;;;;;;20.70;2.20;;;;;;;;;;5046090;28;20056;-67
2023/05/31 10:52:10;;;;;;;10.15;1.48;;;;;;;;;;5050273;28;20478;-65
2023/05/31 10:54:40;;;;;;;2.63;1.42;;;;;;;;;;5049281;28;20084;-65
2023/05/31 10:57:10;;;;;;;11.35;1.60;;;;;;;;;;5050490;28;20460;-63
2023/05/31 10:59:43;;;;;;;4.82;1.38;;;;;;;;;;5050348;28;20049;-64
2023/05/31 11:02:12;;;;;;;9.55;1.13;;;;;;;;;;5049812;28;20048;-66
2023/05/31 11:04:42;;;;;;;7.43;1.27;;;;;;;;;;5042644;28;20052;-64
2023/05/31 11:07:17;;;;;;;5.95;1.35;;;;;;;;;;5050013;28;20473;-63
2023/05/31 11:09:45;;;;;;;;;;;;;;;;;;5050685;28;20044;-63
2023/05/31 11:12:14;;;;;;;3.13;0.82;;;;;;;;;;5050309;28;19921;-63
2023/05/31 11:14:42;;;;;;;4.78;1.20;;;;;;;;;;5049206;28;20045;-63
2023/05/31 11:17:14;;;;;;;3.38;1.17;;;;;;;;;;5049595;28;20111;-64
2023/05/31 11:19:47;;;;;;;6.53;1.13;;;;;;;;;;5049957;28;20080;-64
2023/05/31 11:22:16;;;;;;;1.60;0.98;;;;;;;;;;5049832;28;20052;-64
2023/05/31 11:24:51;;;;;;;1.50;1.10;;;;;;;;;;5047954;28;20085;-64
2023/05/31 11:27:20;;;;;;;3.08;1.23;;;;;;;;;;5049514;28;20064;-67
2023/05/31 11:29:59;;;;;;;4.00;1.63;;;;;;;;;;5049651;28;20581;-66
2023/05/31 11:32:46;;;;;;;11.30;1.77;;;;;;;;;;5049989;28;20081;-63
2023/05/31 11:35:17;;;;;;;2.47;1.08;;;;;;;;;;5036029;28;20456;-65
2023/05/31 11:37:45;;;;;;;2.15;1.08;;;;;;;;;;5040984;28;20111;-64
2023/05/31 11:40:16;;;;;;;6.00;1.40;;;;;;;;;;5049571;28;20056;-66
2023/05/31 11:42:44;;;;;;;3.47;1.20;;;;;;;;;;5049982;28;20056;-66
2023/05/31 11:45:14;;;;;;;5.28;1.45;;;;;;;;;;5049394;28;20116;-64
2023/05/31 11:47:48;;;;;;;1.13;0.80;;;;;;;;;;5036628;28;20057;-63
2023/05/31 11:50:18;;;;;;;2.88;1.30;;;;;;;;;;5041222;28;20520;-64
2023/05/31 11:52:47;;;;;;;1.95;1.10;;;;;;;;;;5053893;28;20319;-63
2023/05/31 11:55:17;;;;;;;1.88;1.00;;;;;;;;;;5044657;28;20048;-64
2023/05/31 11:57:46;;;;;;;1.55;0.90;;;;;;;;;;5039519;28;20093;-65
2023/05/31 12:00:20;;;;;;;5.07;1.00;;;;;;;;;;5044125;28;20052;-66
2023/05/31 12:02:52;;;;;;;5.03;1.07;;;;;;;;;;5050454;28;20049;-64
2023/05/31 12:05:22;;;;;;;3.28;1.30;;;;;;;;;;5052802;28;20756;-65
2023/05/31 12:07:54;;;;;;;1.45;1.02;;;;;;;;;;5040264;28;20049;-63
2023/05/31 12:10:26;;;;;;;3.70;1.65;;;;;;;;;;5053893;28;20048;-64
2023/05/31 12:12:54;;;;;;;5.18;1.40;;;;;;;;;;5040303;28;20065;-64
2023/05/31 12:15:26;;;;;;;2.25;1.00;;;;;;;;;;5053174;28;20128;-65
2023/05/31 12:17:54;;;;;;;2.63;1.38;;;;;;;;;;5045885;28;20409;-64
2023/05/31 12:20:28;;;;;;;1.60;1.15;;;;;;;;;;5049193;28;20087;-65
2023/05/31 12:23:10;;;;;;;6.37;1.17;;;;;;;;;;5044635;28;20104;-64
2023/05/31 12:25:38;;;;;;;3.65;1.77;;;;;;;;;;5053496;28;20118;-64
2023/05/31 12:28:07;;;;;;;5.22;1.10;;;;;;;;;;5053120;28;20490;-64
2023/05/31 12:30:42;;;;;;;1.33;1.00;;;;;;;;;;5048862;28;20049;-65
2023/05/31 12:33:15;;;;;;;4.18;1.33;;;;;;;;;;5047511;28;20073;-69
2023/05/31 12:35:46;;;;;;;5.25;2.05;;;;;;;;;;5043880;28;20516;-65
2023/05/31 12:38:15;;;;;;;8.00;2.10;;;;;;;;;;5053436;28;20521;-65
2023/05/31 12:40:44;;;;;;;2.08;1.02;;;;;;;;;;5053822;28;20131;-64
2023/05/31 12:43:14;;;;;;;1.35;0.93;;;;;;;;;;5053223;28;20049;-61
2023/05/31 12:45:43;;;;;;;1.55;1.05;;;;;;;;;;5053127;28;20564;-64
2023/05/31 12:48:11;;;;;;;2.88;1.17;;;;;;;;;;5052908;28;20057;-64
2023/05/31 12:50:46;;;;;;;2.72;1.10;;;;;;;;;;5052538;28;20512;-64
2023/05/31 12:53:15;;;;;;;1.60;0.95;;;;;;;;;;5051906;28;20053;-64
2023/05/31 12:55:45;;;;;;;2.40;1.10;;;;;;;;;;5045374;28;20106;-63
2023/05/31 12:58:13;;;;;;;2.75;1.30;;;;;;;;;;5038836;28;20044;-66
2023/05/31 13:00:43;;;;;;;4.50;1.05;;;;;;;;;;5051944;28;20049;-67
2023/05/31 13:03:13;;;;;;;3.53;1.30;;;;;;;;;;5052246;28;20421;-63
2023/05/31 13:05:43;;;;;;;1.63;0.93;;;;;;;;;;5046554;28;20045;-64
2023/05/31 13:08:13;;;;;;;3.05;1.23;;;;;;;;;;5052349;28;20140;-63
2023/05/31 13:10:41;;;;;;;2.30;1.00;;;;;;;;;;5052345;28;20048;-66
2023/05/31 13:13:09;;;;;;;2.17;1.10;;;;;;;;;;5052195;28;20131;-65
2023/05/31 13:15:38;;;;;;;1.42;0.93;;;;;;;;;;5051189;28;20559;-64
2023/05/31 13:18:07;;;;;;;3.55;1.38;;;;;;;;;;5052282;28;20049;-65
2023/05/31 13:20:35;;;;;;;2.13;1.35;;;;;;;;;;5052148;28;20057;-66
2023/05/31 13:23:06;;;;;;;2.40;1.02;;;;;;;;;;5051811;28;20058;-66
2023/05/31 13:25:40;;;;;;;3.10;1.30;;;;;;;;;;5037713;28;20063;-65
2023/05/31 13:28:09;;;;;;;1.70;1.33;;;;;;;;;;5049121;28;20528;-66
2023/05/31 13:30:37;;;;;;;3.58;1.45;;;;;;;;;;5038732;28;20106;-64
2023/05/31 13:33:06;;;;;;;1.95;1.42;;;;;;;;;;5052115;28;20114;-64
2023/05/31 13:35:35;;;;;;;3.15;1.25;;;;;;;;;;5051185;28;20047;-65
2023/05/31 13:38:04;;;;;;;3.25;0.90;;;;;;;;;;5051438;28;20052;-65
2023/05/31 13:40:33;;;;;;;3.55;1.23;;;;;;;;;;5051226;28;20045;-65
2023/05/31 13:43:04;;;;;;;2.78;1.05;;;;;;;;;;5051660;28;20502;-64
2023/05/31 13:45:32;;;;;;;3.05;1.50;;;;;;;;;;5042579;28;20520;-64
2023/05/31 13:48:01;;;;;;;1.83;1.00;;;;;;;;;;5038071;28;20103;-66
2023/05/31 13:50:29;;;;;;;3.40;1.30;;;;;;;;;;5041509;28;20556;-66
2023/05/31 13:52:57;;;;;;;2.08;1.20;;;;;;;;;;5034883;28;20049;-64
2023/05/31 13:55:26;;;;;;;1.95;1.00;;;;;;;;;;5044751;28;20049;-64
2023/05/31 13:57:54;;;;;;;3.42;1.30;;;;;;;;;;5047325;28;20053;-65
2023/05/31 14:00:25;;;;;;;2.53;0.90;;;;;;;;;;5031139;28;20049;-68
2023/05/31 14:02:54;;;;;;;3.00;1.15;;;;;;;;;;5035842;28;20103;-64
2023/05/31 14:05:22;;;;;;;3.67;1.30;;;;;;;;;;5040575;28;20049;-64
2023/05/31 14:07:51;;;;;;;1.10;0.80;;;;;;;;;;5051424;28;20057;-64
2023/05/31 14:10:20;;;;;;;4.75;1.00;;;;;;;;;;5051262;28;20083;-64
2023/05/31 14:12:49;;;;;;;4.63;1.33;;;;;;;;;;5050089;28;20076;-65
2023/05/31 14:15:17;;;;;;;2.28;1.23;;;;;;;;;;5048391;28;20045;-67
2023/05/31 14:17:47;;;;;;;3.03;1.10;;;;;;;;;;5051016;28;20052;-65
2023/05/31 14:20:16;;;;;;;4.00;1.40;;;;;;;;;;5051171;28;20190;-64
2023/05/31 14:22:44;;;;;;;4.35;1.85;;;;;;;;;;5043255;28;20053;-64
2023/05/31 14:25:13;;;;;;;1.73;0.90;;;;;;;;;;5017306;28;20045;-63
2023/05/31 14:27:41;;;;;;;1.80;1.27;;;;;;;;;;5024093;28;20080;-64
2023/05/31 14:30:10;;;;;;;2.30;1.27;;;;;;;;;;5025920;28;20046;-65
2023/05/31 14:32:38;;;;;;;2.35;1.23;;;;;;;;;;5030949;28;20056;-62
2023/05/31 14:35:10;;;;;;;4.82;1.20;;;;;;;;;;5033886;28;20045;-63
2023/05/31 14:37:39;;;;;;;2.10;1.00;;;;;;;;;;5042500;28;20065;-63
2023/05/31 14:40:24;;;;;;;1.33;0.70;;;;;;;;;;5037097;28;20725;-62
2023/05/31 14:42:52;;;;;;;2.47;1.02;;;;;;;;;;5050389;28;20049;-63
2023/05/31 14:45:20;;;;;;;4.53;1.83;;;;;;;;;;5049867;28;20123;-65
2023/05/31 14:47:49;;;;;;;1.88;1.10;;;;;;;;;;5050066;28;20486;-64
2023/05/31 14:50:19;;;;;;;1.67;0.98;;;;;;;;;;5050423;28;20114;-63
2023/05/31 14:52:47;;;;;;;3.38;1.08;;;;;;;;;;5049780;28;20098;-64
2023/05/31 14:55:16;;;;;;;3.83;1.08;;;;;;;;;;5049724;28;20440;-65
2023/05/31 14:57:44;;;;;;;1.50;1.02;;;;;;;;;;5037009;28;20049;-63